Namao — CZ9742 — position and weather

sailwx.info

Track history (hours):
 
Tides and Currents Weather Stations Pressure Air Temp Water Temp Dewpoint Dewpoint Depression Visibility Wind Speed Wind Dir Waves Ship Positions

Oceanographic research ship Namao (Canada)

Last reported at 2017-Apr-29 05:00 UTC. Time now 2017-Apr-29 05:49 UTC.
Position N 50°36' W 096°54'.

Wind from 330 at 3 knots

Barometer 1023.2 mb
Air temperature 3.5 ° C
Dewpoint -11.1 ° C

Date/timePositionNaut miles runAvg speedWind from/ knotsBaromVisibWave heightAir tempDewpointWater temp
2017-Apr-29 05:00N 50°36' W 096°54'0 0.0 330 / 31023.2 3.5-11.1
2017-Apr-29 04:00N 50°36' W 096°54'0 0.0 330 / 31022.3 3.6-10.1
2017-Apr-29 03:00N 50°36' W 096°54'0 0.0 310 / 31021.3 4.4-4.1
2017-Apr-29 02:00N 50°36' W 096°54'0 0.0 010 / 81020.2 5.2-2.9
2017-Apr-29 01:00N 50°36' W 096°54'0 0.0 010 / 91019.3 5.9-2.2
2017-Apr-29 00:00N 50°36' W 096°54'0 0.0 020 / 101018.7 6.1-3.1
2017-Apr-28 23:00N 50°36' W 096°54'0 0.0 020 / 131018.2 6.0-4.6
2017-Apr-28 22:00N 50°36' W 096°54'0 0.0 030 / 131017.8 5.8-5.6
2017-Apr-28 21:00N 50°36' W 096°54'0 0.0 030 / 131017.6 5.3-5.9
2017-Apr-28 20:00N 50°36' W 096°54'0 0.0 040 / 131017.0 4.7-6.2
2017-Apr-28 19:00N 50°36' W 096°54'0 0.0 040 / 121016.4 4.7-5.3
2017-Apr-28 18:00N 50°36' W 096°54'0 0.0 020 / 141016.2 4.3-7.8
2017-Apr-28 17:00N 50°36' W 096°54'0 0.0 330 / 121016.0 4.8-14.3
2017-Apr-28 16:00N 50°36' W 096°54'0 0.0 310 / 111015.5 3.4-12.8
2017-Apr-28 15:00N 50°36' W 096°54'0 0.0 320 / 101015.3 2.2-11.6
2017-Apr-28 14:00N 50°36' W 096°54'0 0.0 320 / 101014.5 1.0-11.4
2017-Apr-28 13:00N 50°36' W 096°54'0 0.0 310 / 91014.1 -0.6-9.8
2017-Apr-28 12:00N 50°36' W 096°54'0 0.0 320 / 91013.3 -1.0-9.9
2017-Apr-28 11:00N 50°36' W 096°54'0 0.0 310 / 81012.5 -0.7-10.3
2017-Apr-28 10:00N 50°36' W 096°54'0 0.0 310 / 81011.8 -0.4-9.5
2017-Apr-28 09:00N 50°36' W 096°54'0 0.0 310 / 81011.5 0.4-8.5
2017-Apr-28 08:00N 50°36' W 096°54'0 0.0 320 / 81011.2 0.7-8.1
2017-Apr-28 07:00N 50°36' W 096°54'0 0.0 310 / 71011.0 1.6-8.7
2017-Apr-28 06:00N 50°36' W 096°54'0 0.0 280 / 51011.1 1.4-4.2
2017-Apr-28 05:00N 50°36' W 096°54'0 0.0 360 / 71010.5 3.1-2.2
2017-Apr-28 04:00N 50°36' W 096°54'0 0.0 040 / 141009.9 3.4-2.7
2017-Apr-28 03:00N 50°36' W 096°54'0 0.0 020 / 211009.3 3.9-2.3
2017-Apr-28 02:00N 50°36' W 096°54'0 0.0 030 / 211008.5 4.1-2.1
2017-Apr-28 01:00N 50°36' W 096°54'0 0.0 360 / 131008.1 5.4-3.7
2017-Apr-28 00:00N 50°36' W 096°54'0 0.0 360 / 151007.8 5.5-3.6
2017-Apr-27 23:00N 50°36' W 096°54'0 0.0 360 / 161007.6 4.5-2.3
2017-Apr-27 22:00N 50°36' W 096°54'0 0.0 010 / 201007.5 3.2-0.6
2017-Apr-27 20:00N 50°36' W 096°54'0 0.0 010 / 221007.7 3.3-1.4
2017-Apr-27 19:00N 50°36' W 096°54'0 0.0 010 / 221007.9 2.9-3.0
2017-Apr-27 18:00N 50°36' W 096°54'0 0.0 010 / 221008.3 2.6-3.9
2017-Apr-27 17:00N 50°36' W 096°54'0 0.0 360 / 201008.7 1.9-4.9
2017-Apr-27 16:00N 50°36' W 096°54'0 0.0 010 / 191009.0 1.1-6.5
2017-Apr-27 15:00N 50°36' W 096°54'0 0.0 360 / 191009.2 0.3-7.5
2017-Apr-27 14:00N 50°36' W 096°54'0 0.0 020 / 191009.8 -0.0-8.3
2017-Apr-27 13:00N 50°36' W 096°54'0 0.0 020 / 181010.0 0.1-8.9
2017-Apr-27 12:00N 50°36' W 096°54'0 0.0 030 / 171010.0 0.2-9.1
2017-Apr-27 11:00N 50°36' W 096°54'0 0.0 040 / 171010.1 0.3-9.9
2017-Apr-27 10:00N 50°36' W 096°54'0 0.0 040 / 181010.2 0.7-10.1
2017-Apr-27 09:00N 50°36' W 096°54'0 0.0 040 / 201010.2 1.1-10.0
2017-Apr-27 08:00N 50°36' W 096°54'0 0.0 040 / 191010.4 1.6-10.0
2017-Apr-27 07:00N 50°36' W 096°54'0 0.0 040 / 181010.8 2.2-9.3
2017-Apr-27 06:00N 50°36' W 096°54'0 0.0 040 / 201011.2 2.6-8.7
2017-Apr-27 05:00N 50°36' W 096°54'0 0.0 040 / 181011.5 3.1-7.6
2017-Apr-27 04:00N 50°36' W 096°54'0 0.0 040 / 181011.9 3.4-6.8
2017-Apr-27 03:00N 50°36' W 096°54'0 0.0 040 / 181012.2 3.8-5.9
2017-Apr-27 02:00N 50°36' W 096°54'0 0.0 040 / 161012.2 3.9-3.7
2017-Apr-27 00:00N 50°36' W 096°54'0 0.0 020 / 161012.4 4.4-3.8
2017-Apr-26 23:00N 50°36' W 096°54'0 0.0 020 / 161012.7 4.1-2.7
2017-Apr-26 22:00N 50°36' W 096°54'0 0.0 010 / 171012.3 4.1-3.5
2017-Apr-26 21:00N 50°36' W 096°54'0 0.0 360 / 201012.9 3.3-4.0
2017-Apr-26 20:00N 50°36' W 096°54'0 0.0 010 / 211013.5 2.7-5.4
2017-Apr-26 19:00N 50°36' W 096°54'0 0.0 010 / 231014.3 1.6-5.7
2017-Apr-26 18:00N 50°36' W 096°54'0 0.0 010 / 211015.4 1.0-4.5
2017-Apr-26 17:00N 50°36' W 096°54'0 0.0 020 / 201016.4 0.3-5.7
2017-Apr-26 16:00N 50°36' W 096°54'0 0.0 030 / 191017.1 -0.4-6.4
2017-Apr-26 15:00N 50°36' W 096°54'0 0.0 040 / 181017.6 -0.8-6.2
2017-Apr-26 14:00N 50°36' W 096°54'0 0.0 050 / 181017.4 -1.2-6.4
2017-Apr-26 13:00N 50°36' W 096°54'0 0.0 040 / 201017.3 -1.0-6.0
2017-Apr-26 12:00N 50°36' W 096°54'0 0.0 050 / 211017.3 -0.7-5.9
2017-Apr-26 11:00N 50°36' W 096°54'0 0.0 040 / 221017.0 -0.4-5.9
2017-Apr-26 10:00N 50°36' W 096°54'0 0.0 040 / 211016.8 0.1-5.6
2017-Apr-26 09:00N 50°36' W 096°54'0 0.0 040 / 211017.0 0.5-5.5
2017-Apr-26 08:00N 50°36' W 096°54'0 0.0 050 / 191017.6 1.1-5.2
2017-Apr-26 07:00N 50°36' W 096°54'0 0.0 050 / 201017.8 1.6-4.7
2017-Apr-26 06:00N 50°36' W 096°54'0 0.0 040 / 201017.6 2.3-3.6
2017-Apr-26 05:00N 50°36' W 096°54'0 0.0 040 / 191017.3 2.9-3.0
2017-Apr-26 04:00N 50°36' W 096°54'0 0.0 040 / 201017.5 3.7-3.3
2017-Apr-26 03:00N 50°36' W 096°54'0 0.0 030 / 151017.8 3.6-0.5
2017-Apr-26 02:00N 50°36' W 096°54'0 0.0 030 / 171017.3 4.1-1.6
2017-Apr-26 01:00N 50°36' W 096°54'0 0.0 010 / 181016.5 4.8-1.9
2017-Apr-26 00:00N 50°36' W 096°54'0 0.0 010 / 181015.9 4.9-1.9
2017-Apr-25 23:00N 50°36' W 096°54'0 0.0 010 / 191015.4 4.7-2.2
2017-Apr-25 22:00N 50°36' W 096°54'0 0.0 010 / 211015.2 4.4-3.3
2017-Apr-25 21:00N 50°36' W 096°54'0 0.0 010 / 211015.4 3.8-3.6
2017-Apr-25 20:00N 50°36' W 096°54'0 0.0 010 / 201016.2 3.0-4.2
2017-Apr-25 19:00N 50°36' W 096°54'0 0.0 010 / 211016.3 2.2-4.3
2017-Apr-25 18:00N 50°36' W 096°54'0 0.0 010 / 211016.0 1.1-4.4
2017-Apr-25 17:00N 50°36' W 096°54'0 0.0 020 / 241015.6 0.4-4.7
2017-Apr-25 16:00N 50°36' W 096°54'0 0.0 020 / 231015.6 -0.5-4.7
2017-Apr-25 15:00N 50°36' W 096°54'0 0.0 010 / 221015.5 -1.1-4.7
2017-Apr-25 14:00N 50°36' W 096°54'0 0.0 020 / 211015.3 -1.2-4.7
2017-Apr-25 13:00N 50°36' W 096°54'0 0.0 040 / 211014.9 -1.2-4.5
2017-Apr-25 12:00N 50°36' W 096°54'0 0.0 030 / 211014.2 -0.7-3.9
2017-Apr-25 11:00N 50°36' W 096°54'0 0.0 050 / 221013.7 -0.5-4.2
2017-Apr-25 10:00N 50°36' W 096°54'0 0.0 040 / 231013.1 -0.3-3.6
2017-Apr-25 09:00N 50°36' W 096°54'0 0.0 030 / 251012.5 -0.3-3.7
2017-Apr-25 06:00N 50°36' W 096°54'0 0.0 040 / 241012.3 0.3-3.0
2017-Apr-25 05:00N 50°36' W 096°54'0 0.0 050 / 241012.2 0.4-2.7
2017-Apr-25 04:00N 50°36' W 096°54'0 0.0 050 / 231012.4 0.3-2.4
2017-Apr-25 03:00N 50°36' W 096°54'0 0.0 050 / 241012.5 0.5-2.1
2017-Apr-25 01:00N 50°36' W 096°54'0 0.0 050 / 221011.8 0.6 0.4
2017-Apr-25 00:00N 50°36' W 096°54'0 0.0 050 / 241011.6 0.5 0.4
2017-Apr-24 23:00N 50°36' W 096°54'0 0.0 050 / 201011.8 0.4 0.3
2017-Apr-24 22:00N 50°36' W 096°54'0 0.0 050 / 191011.7 0.7 0.6
2017-Apr-24 21:00N 50°36' W 096°54'0 0.0 070 / 191011.9 0.9 0.9
2017-Apr-24 20:00N 50°36' W 096°54'0 0.0 070 / 221011.5 3.1-4.4
2017-Apr-24 19:00N 50°36' W 096°54'0 0.0 060 / 121011.4 3.1-4.7
2017-Apr-24 18:00N 50°36' W 096°54'0 0.0 040 / 171011.3 2.8-5.2
2017-Apr-24 17:00N 50°36' W 096°54'0 0.0 050 / 181012.2 2.4-6.1
2017-Apr-24 16:00N 50°36' W 096°54'0 0.0 040 / 181013.0 1.9-6.7
2017-Apr-24 15:00N 50°36' W 096°54'0 0.0 060 / 191014.0 1.5-7.4
2017-Apr-24 14:00N 50°36' W 096°54'0 0.0 060 / 191014.7 1.1-6.9
2017-Apr-24 13:00N 50°36' W 096°54'0 0.0 080 / 181015.5 1.1-7.3
2017-Apr-24 12:00N 50°36' W 096°54'0 0.0 080 / 151015.8 0.9-6.8
2017-Apr-24 11:00N 50°36' W 096°54'0 0.0 090 / 141016.4 0.8-6.6
2017-Apr-24 10:00N 50°36' W 096°54'0 0.0 080 / 141016.8 0.9-6.3
2017-Apr-24 09:00N 50°36' W 096°54'0 0.0 070 / 151017.2 1.1-5.2
2017-Apr-24 08:00N 50°36' W 096°54'0 0.0 060 / 201017.9 1.3-5.2
2017-Apr-24 07:00N 50°36' W 096°54'0 0.0 050 / 201018.4 1.5-4.8
2017-Apr-24 06:00N 50°36' W 096°54'0 0.0 050 / 181019.4 2.0-4.7
2017-Apr-24 05:00N 50°36' W 096°54'0 0.0 040 / 191019.4 2.2-4.3
2017-Apr-24 04:00N 50°36' W 096°54'0 0.0 030 / 171020.0 2.3-4.8
2017-Apr-24 03:00N 50°36' W 096°54'0 0.0 030 / 161020.3 2.3-5.6
2017-Apr-24 02:00N 50°36' W 096°54'0 0.0 030 / 151020.7 2.4-5.6
2017-Apr-24 01:00N 50°36' W 096°54'0 0.0 020 / 131021.0 2.0-6.7
2017-Apr-24 00:00N 50°36' W 096°54'0 0.0 020 / 131021.4 2.3-7.2
2017-Apr-23 23:00N 50°36' W 096°54'0 0.0 050 / 151022.1 2.0-7.0
2017-Apr-23 22:00N 50°36' W 096°54'0 0.0 050 / 141022.7 1.8-8.1
2017-Apr-23 21:00N 50°36' W 096°54'0 0.0 060 / 131023.6 1.5-7.9
2017-Apr-23 20:00N 50°36' W 096°54'0 0.0 080 / 101024.5 1.9-8.4
2017-Apr-23 19:00N 50°36' W 096°54'0 0.0 090 / 71025.3 2.4-8.7
2017-Apr-23 18:00N 50°36' W 096°54'0 0.0 100 / 51026.1 1.9-9.7
2017-Apr-23 17:00N 50°36' W 096°54'0 0.0 120 / 81026.3 0.7-8.7
2017-Apr-23 16:00N 50°36' W 096°54'0 0.0 110 / 71026.6 0.6-8.9
2017-Apr-23 15:00N 50°36' W 096°54'0 0.0 110 / 71026.6 -0.2-7.3
2017-Apr-23 14:00N 50°36' W 096°54'0 0.0 120 / 51027.0 -0.9-8.5
2017-Apr-23 13:00N 50°36' W 096°54'0 0.0 360 / 31027.2 -2.5-5.6
2017-Apr-23 12:00N 50°36' W 096°54'0 0.0 310 / 31027.2 -4.3-8.0
2017-Apr-23 11:00N 50°36' W 096°54'0 0.0 320 / 51027.6 -4.6-9.0
2017-Apr-23 10:00N 50°36' W 096°54'0 0.0 320 / 51027.9 -4.2-9.1
2017-Apr-23 09:00N 50°36' W 096°54'0 0.0 320 / 51027.8 -4.0-9.2
2017-Apr-23 08:00N 50°36' W 096°54'0 0.0 300 / 41028.1 -4.0-9.5
2017-Apr-23 07:00N 50°36' W 096°54'0 0.0 310 / 41028.0 -3.4-9.9
2017-Apr-23 06:00N 50°36' W 096°54'0 0.0 330 / 61027.9 -2.6-9.5
2017-Apr-23 05:00N 50°36' W 096°54'0 0.0 340 / 111027.8 -1.7-9.7
2017-Apr-23 04:00N 50°36' W 096°54'0 0.0 340 / 121027.5 -1.9-10.8
2017-Apr-23 03:00N 50°36' W 096°54'0 0.0 340 / 151027.3 -1.8-10.7
2017-Apr-23 02:00N 50°36' W 096°54'0 0.0 340 / 141027.0 -1.4-10.9
2017-Apr-23 01:00N 50°36' W 096°54'0 0.0 350 / 161026.9 -0.8-10.0
2017-Apr-23 00:00N 50°36' W 096°54'0 0.0 350 / 161026.6 0.1-8.1
2017-Apr-22 23:00N 50°36' W 096°54'0 0.0 360 / 181026.2 0.6-7.1
2017-Apr-22 22:00N 50°36' W 096°54'0 0.0 020 / 181026.0 0.7-5.4
2017-Apr-22 21:00N 50°36' W 096°54'0 0.0 010 / 161026.2 1.2-5.3
2017-Apr-22 20:00N 50°36' W 096°54'0 0.0 360 / 171026.0 1.1-5.8
2017-Apr-22 19:00N 50°36' W 096°54'0 0.0 350 / 181026.2 1.0-6.0
2017-Apr-22 18:00N 50°36' W 096°54'0 0.0 360 / 181026.5 0.5-4.4
2017-Apr-22 17:00N 50°36' W 096°54'0 0.0 340 / 141026.2 -0.9-1.0
2017-Apr-22 16:00N 50°36' W 096°54'0 0.0 330 / 141025.8 -1.5-1.5
2017-Apr-22 15:00N 50°36' W 096°54'0 0.0 340 / 141025.4 -1.3-1.2
2017-Apr-22 14:00N 50°36' W 096°54'0 0.0 340 / 141025.0 -1.2-1.1
2017-Apr-22 13:00N 50°36' W 096°54'0 0.0 330 / 131024.7 -0.3-0.2
2017-Apr-22 12:00N 50°36' W 096°54'0 0.0 340 / 161023.9 0.2 0.3
2017-Apr-22 11:00N 50°36' W 096°54'0 0.0 330 / 111023.5 0.8 1.0
2017-Apr-22 10:00N 50°36' W 096°54'0 0.0 330 / 111022.8 2.6 2.8
2017-Apr-22 09:00N 50°36' W 096°54'0 0.0 330 / 101022.7 3.6 3.8
2017-Apr-22 08:00N 50°36' W 096°54'0 0.0 320 / 121022.4 4.3 4.5
2017-Apr-22 07:00N 50°36' W 096°54'0 0.0 320 / 81022.5 5.4 5.6
2017-Apr-22 06:00N 50°36' W 096°54'0 0.0 350 / 81022.0 5.9 6.1
2017-Apr-22 05:00N 50°36' W 096°54'0 0.0 360 / 101021.6 6.7 6.8
2017-Apr-22 04:00N 50°36' W 096°54'0 0.0 010 / 91021.7 5.9 5.9
2017-Apr-22 03:00N 50°36' W 096°54'0 0.0 360 / 111021.2 7.9 7.7
2017-Apr-22 02:00N 50°36' W 096°54'0 0.0 360 / 91021.4 8.5 5.7
2017-Apr-22 01:00N 50°36' W 096°54'0 0.0 220 / 61020.8 13.7 1.0
2017-Apr-22 00:00N 50°36' W 096°54'0 0.0 160 / 61021.3 8.5 2.2
2017-Apr-21 23:00N 50°36' W 096°54'0 0.0 130 / 91021.5 10.0 3.6
2017-Apr-21 22:00N 50°36' W 096°54'0 0.0 130 / 131021.7 9.1 4.3
2017-Apr-21 21:00N 50°36' W 096°54'0 0.0 120 / 111022.2 6.8 5.6
2017-Apr-21 20:00N 50°36' W 096°54'0 0.0 110 / 81022.9 7.3 5.7
2017-Apr-21 19:00N 50°36' W 096°54'0 0.0 110 / 91023.3 5.6 5.6
2017-Apr-21 18:00N 50°36' W 096°54'0 0.0 110 / 71023.6 4.4 4.5
2017-Apr-21 17:00N 50°36' W 096°54'0 0.0 110 / 91023.8 4.0 4.0
2017-Apr-21 16:00N 50°36' W 096°54'0 0.0 120 / 71024.1 4.5 4.5
2017-Apr-21 15:00N 50°36' W 096°54'0 0.0 210 / 41024.0 6.4 5.8
2017-Apr-21 14:00N 50°36' W 096°54'0 0.0 230 / 31024.6 3.6 3.6
2017-Apr-21 13:00N 50°36' W 096°54'0 0.0 310 / 11024.2 2.6 2.6
2017-Apr-21 12:00N 50°36' W 096°54'0 0.0 260 / 41023.9 1.1 1.3
2017-Apr-21 11:00N 50°36' W 096°54'0 0.0 270 / 51023.7 0.7 0.9
2017-Apr-21 10:00N 50°36' W 096°54'0 0.0 270 / 31023.3 0.8 1.0
2017-Apr-21 09:00N 50°36' W 096°54'0 0.0 290 / 31023.2 1.7 1.8
2017-Apr-21 08:00N 50°36' W 096°54'0 0.0 290 / 31023.1 2.2 2.2
2017-Apr-21 07:00N 50°36' W 096°54'0 0.0 300 / 41022.9 3.3 3.2
2017-Apr-21 06:00N 50°36' W 096°54'0 0.0 310 / 41022.8 3.9 3.8
2017-Apr-21 05:00N 50°36' W 096°54'0 0.0 350 / 41022.4 4.1 4.0
2017-Apr-21 04:00N 50°36' W 096°54'0 0.0 360 / 101021.8 4.9 4.6
2017-Apr-21 03:00N 50°36' W 096°54'0 0.0 360 / 81021.4 5.5 4.8
2017-Apr-21 02:00N 50°36' W 096°54'0 0.0 360 / 81021.0 5.4 4.7
2017-Apr-21 01:00N 50°36' W 096°54'0 0.0 360 / 71020.6 6.8 3.5
2017-Apr-21 00:00N 50°36' W 096°54'0 0.0 040 / 21020.1 5.7 4.3
2017-Apr-20 23:00N 50°36' W 096°54'0 0.0 020 / 31019.8 5.1 5.0
2017-Apr-20 22:00N 50°36' W 096°54'0 0.0 010 / 51019.3 5.0 4.9
2017-Apr-20 20:00N 50°36' W 096°54'0 0.0 020 / 71019.3 4.8 4.6
2017-Apr-20 19:00N 50°36' W 096°54'0 0.0 020 / 51019.2 4.4 4.3
2017-Apr-20 18:00N 50°36' W 096°54'0 0.0 040 / 41019.3 4.0 3.9
2017-Apr-20 17:00N 50°36' W 096°54'0 0.0 060 / 41019.1 5.3 3.7
2017-Apr-20 16:00N 50°36' W 096°54'0 0.0 030 / 31019.0 6.4 3.4
2017-Apr-20 15:00N 50°36' W 096°54'0 0.0 1018.9 5.2 2.0
2017-Apr-20 14:00N 50°36' W 096°54'0 0.0 130 / 21018.7 4.1 3.8
2017-Apr-20 13:00N 50°36' W 096°54'0 0.0 110 / 21018.6 3.9 3.7
2017-Apr-20 12:00N 50°36' W 096°54'0 0.0 1018.2 3.1 3.0
2017-Apr-20 11:00N 50°36' W 096°54'0 0.0 260 / 11018.1 3.2 2.9
2017-Apr-20 10:00N 50°36' W 096°54'0 0.0 1018.0 4.1 1.3
2017-Apr-20 09:00N 50°36' W 096°54'0 0.0 200 / 21018.2 3.4 1.9
2017-Apr-20 07:00N 50°36' W 096°54'0 0.0 140 / 11018.5 4.6 1.0
2017-Apr-20 06:00N 50°36' W 096°54'0 0.0 090 / 41018.6 4.3 1.7
2017-Apr-20 05:00N 50°36' W 096°54'0 0.0 060 / 31019.2 3.3 1.7
2017-Apr-20 04:00N 50°36' W 096°54'0 0.0 050 / 31019.5 3.3 0.3
2017-Apr-20 03:00N 50°36' W 096°54'0 0.0 010 / 21020.0 3.5 0.3
2017-Apr-20 02:00N 50°36' W 096°54'0 0.0 010 / 31019.9 4.9 0.1
2017-Apr-20 01:00N 50°36' W 096°54'0 0.0 010 / 51020.0 4.3 0.8
2017-Apr-20 00:00N 50°36' W 096°54'0 0.0 010 / 41020.1 3.7 2.4
2017-Apr-19 23:00N 50°36' W 096°54'0 0.0 030 / 31020.6 3.8 2.5
2017-Apr-19 22:00N 50°36' W 096°54'0 0.0 040 / 51020.8 4.8 0.7
2017-Apr-19 21:00N 50°36' W 096°54'0 0.0 040 / 61021.2 3.9 2.6
2017-Apr-19 20:00N 50°36' W 096°54'0 0.0 060 / 41021.4 3.5 3.4
2017-Apr-19 19:00N 50°36' W 096°54'0 0.0 050 / 41021.5 3.1 3.0
2017-Apr-19 18:00N 50°36' W 096°54'0 0.0 040 / 41022.1 3.1 2.9
2017-Apr-19 17:00N 50°36' W 096°54'0 0.0 090 / 41023.3 4.8 0.9
2017-Apr-19 16:00N 50°36' W 096°54'0 0.0 080 / 11022.3 4.3 0.2
2017-Apr-19 15:00N 50°36' W 096°54'0 0.0 050 / 41022.0 1.3 1.1
2017-Apr-19 14:00N 50°36' W 096°54'0 0.0 040 / 41022.2 0.7 0.6
2017-Apr-19 13:00N 50°36' W 096°54'0 0.0 140 / 11022.7 0.9 0.8
2017-Apr-19 12:00N 50°36' W 096°54'0 0.0 150 / 21022.8 0.5 0.4
2017-Apr-19 11:00N 50°36' W 096°54'0 0.0 060 / 31021.7 0.4 0.4
2017-Apr-19 10:00N 50°36' W 096°54'0 0.0 050 / 51021.2 0.6 0.6
2017-Apr-19 09:00N 50°36' W 096°54'0 0.0 030 / 51021.3 1.1 1.0
2017-Apr-19 08:00N 50°36' W 096°54'0 0.0 020 / 71020.9 1.4 1.4
2017-Apr-19 07:00N 50°36' W 096°54'0 0.0 010 / 91020.8 1.3 1.2
2017-Apr-19 06:00N 50°36' W 096°54'0 0.0 360 / 111020.2 1.5 0.4
2017-Apr-19 05:00N 50°36' W 096°54'   350 / 91019.7 1.8-1.0
Track history (hours):
 
Tides and Currents Weather Stations Pressure Air Temp Water Temp Dewpoint Dewpoint Depression Visibility Wind Speed Wind Dir Waves Ship Positions

Oceanographic research ship Namao (Canada)

Last reported at 2017-Apr-29 05:00 UTC. Time now 2017-Apr-29 05:49 UTC.
Position N 50°36' W 096°54'.

Wind from 330 at 3 knots

Barometer 1023.2 mb
Air temperature 3.5 ° C
Dewpoint -11.1 ° C

Date/timePositionNaut miles runAvg speedWind from/ knotsBaromVisibWave heightAir tempDewpointWater temp
2017-Apr-29 05:00N 50°36' W 096°54'0 0.0 330 / 31023.2 3.5-11.1
2017-Apr-29 04:00N 50°36' W 096°54'0 0.0 330 / 31022.3 3.6-10.1
2017-Apr-29 03:00N 50°36' W 096°54'0 0.0 310 / 31021.3 4.4-4.1
2017-Apr-29 02:00N 50°36' W 096°54'0 0.0 010 / 81020.2 5.2-2.9
2017-Apr-29 01:00N 50°36' W 096°54'0 0.0 010 / 91019.3 5.9-2.2
2017-Apr-29 00:00N 50°36' W 096°54'0 0.0 020 / 101018.7 6.1-3.1
2017-Apr-28 23:00N 50°36' W 096°54'0 0.0 020 / 131018.2 6.0-4.6
2017-Apr-28 22:00N 50°36' W 096°54'0 0.0 030 / 131017.8 5.8-5.6
2017-Apr-28 21:00N 50°36' W 096°54'0 0.0 030 / 131017.6 5.3-5.9
2017-Apr-28 20:00N 50°36' W 096°54'0 0.0 040 / 131017.0 4.7-6.2
2017-Apr-28 19:00N 50°36' W 096°54'0 0.0 040 / 121016.4 4.7-5.3
2017-Apr-28 18:00N 50°36' W 096°54'0 0.0 020 / 141016.2 4.3-7.8
2017-Apr-28 17:00N 50°36' W 096°54'0 0.0 330 / 121016.0 4.8-14.3
2017-Apr-28 16:00N 50°36' W 096°54'0 0.0 310 / 111015.5 3.4-12.8
2017-Apr-28 15:00N 50°36' W 096°54'0 0.0 320 / 101015.3 2.2-11.6
2017-Apr-28 14:00N 50°36' W 096°54'0 0.0 320 / 101014.5 1.0-11.4
2017-Apr-28 13:00N 50°36' W 096°54'0 0.0 310 / 91014.1 -0.6-9.8
2017-Apr-28 12:00N 50°36' W 096°54'0 0.0 320 / 91013.3 -1.0-9.9
2017-Apr-28 11:00N 50°36' W 096°54'0 0.0 310 / 81012.5 -0.7-10.3
2017-Apr-28 10:00N 50°36' W 096°54'0 0.0 310 / 81011.8 -0.4-9.5
2017-Apr-28 09:00N 50°36' W 096°54'0 0.0 310 / 81011.5 0.4-8.5
2017-Apr-28 08:00N 50°36' W 096°54'0 0.0 320 / 81011.2 0.7-8.1
2017-Apr-28 07:00N 50°36' W 096°54'0 0.0 310 / 71011.0 1.6-8.7
2017-Apr-28 06:00N 50°36' W 096°54'0 0.0 280 / 51011.1 1.4-4.2
2017-Apr-28 05:00N 50°36' W 096°54'0 0.0 360 / 71010.5 3.1-2.2
2017-Apr-28 04:00N 50°36' W 096°54'0 0.0 040 / 141009.9 3.4-2.7
2017-Apr-28 03:00N 50°36' W 096°54'0 0.0 020 / 211009.3 3.9-2.3
2017-Apr-28 02:00N 50°36' W 096°54'0 0.0 030 / 211008.5 4.1-2.1
2017-Apr-28 01:00N 50°36' W 096°54'0 0.0 360 / 131008.1 5.4-3.7
2017-Apr-28 00:00N 50°36' W 096°54'0 0.0 360 / 151007.8 5.5-3.6
2017-Apr-27 23:00N 50°36' W 096°54'0 0.0 360 / 161007.6 4.5-2.3
2017-Apr-27 22:00N 50°36' W 096°54'0 0.0 010 / 201007.5 3.2-0.6
2017-Apr-27 20:00N 50°36' W 096°54'0 0.0 010 / 221007.7 3.3-1.4
2017-Apr-27 19:00N 50°36' W 096°54'0 0.0 010 / 221007.9 2.9-3.0
2017-Apr-27 18:00N 50°36' W 096°54'0 0.0 010 / 221008.3 2.6-3.9
2017-Apr-27 17:00N 50°36' W 096°54'0 0.0 360 / 201008.7 1.9-4.9
2017-Apr-27 16:00N 50°36' W 096°54'0 0.0 010 / 191009.0 1.1-6.5
2017-Apr-27 15:00N 50°36' W 096°54'0 0.0 360 / 191009.2 0.3-7.5
2017-Apr-27 14:00N 50°36' W 096°54'0 0.0 020 / 191009.8 -0.0-8.3
2017-Apr-27 13:00N 50°36' W 096°54'0 0.0 020 / 181010.0 0.1-8.9
2017-Apr-27 12:00N 50°36' W 096°54'0 0.0 030 / 171010.0 0.2-9.1
2017-Apr-27 11:00N 50°36' W 096°54'0 0.0 040 / 171010.1 0.3-9.9
2017-Apr-27 10:00N 50°36' W 096°54'0 0.0 040 / 181010.2 0.7-10.1
2017-Apr-27 09:00N 50°36' W 096°54'0 0.0 040 / 201010.2 1.1-10.0
2017-Apr-27 08:00N 50°36' W 096°54'0 0.0 040 / 191010.4 1.6-10.0
2017-Apr-27 07:00N 50°36' W 096°54'0 0.0 040 / 181010.8 2.2-9.3
2017-Apr-27 06:00N 50°36' W 096°54'0 0.0 040 / 201011.2 2.6-8.7
2017-Apr-27 05:00N 50°36' W 096°54'0 0.0 040 / 181011.5 3.1-7.6
2017-Apr-27 04:00N 50°36' W 096°54'0 0.0 040 / 181011.9 3.4-6.8
2017-Apr-27 03:00N 50°36' W 096°54'0 0.0 040 / 181012.2 3.8-5.9
2017-Apr-27 02:00N 50°36' W 096°54'0 0.0 040 / 161012.2 3.9-3.7
2017-Apr-27 00:00N 50°36' W 096°54'0 0.0 020 / 161012.4 4.4-3.8
2017-Apr-26 23:00N 50°36' W 096°54'0 0.0 020 / 161012.7 4.1-2.7
2017-Apr-26 22:00N 50°36' W 096°54'0 0.0 010 / 171012.3 4.1-3.5
2017-Apr-26 21:00N 50°36' W 096°54'0 0.0 360 / 201012.9 3.3-4.0
2017-Apr-26 20:00N 50°36' W 096°54'0 0.0 010 / 211013.5 2.7-5.4
2017-Apr-26 19:00N 50°36' W 096°54'0 0.0 010 / 231014.3 1.6-5.7
2017-Apr-26 18:00N 50°36' W 096°54'0 0.0 010 / 211015.4 1.0-4.5
2017-Apr-26 17:00N 50°36' W 096°54'0 0.0 020 / 201016.4 0.3-5.7
2017-Apr-26 16:00N 50°36' W 096°54'0 0.0 030 / 191017.1 -0.4-6.4
2017-Apr-26 15:00N 50°36' W 096°54'0 0.0 040 / 181017.6 -0.8-6.2
2017-Apr-26 14:00N 50°36' W 096°54'0 0.0 050 / 181017.4 -1.2-6.4
2017-Apr-26 13:00N 50°36' W 096°54'0 0.0 040 / 201017.3 -1.0-6.0
2017-Apr-26 12:00N 50°36' W 096°54'0 0.0 050 / 211017.3 -0.7-5.9
2017-Apr-26 11:00N 50°36' W 096°54'0 0.0 040 / 221017.0 -0.4-5.9
2017-Apr-26 10:00N 50°36' W 096°54'0 0.0 040 / 211016.8 0.1-5.6
2017-Apr-26 09:00N 50°36' W 096°54'0 0.0 040 / 211017.0 0.5-5.5
2017-Apr-26 08:00N 50°36' W 096°54'0 0.0 050 / 191017.6 1.1-5.2
2017-Apr-26 07:00N 50°36' W 096°54'0 0.0 050 / 201017.8 1.6-4.7
2017-Apr-26 06:00N 50°36' W 096°54'0 0.0 040 / 201017.6 2.3-3.6
2017-Apr-26 05:00N 50°36' W 096°54'0 0.0 040 / 191017.3 2.9-3.0
2017-Apr-26 04:00N 50°36' W 096°54'0 0.0 040 / 201017.5 3.7-3.3
2017-Apr-26 03:00N 50°36' W 096°54'0 0.0 030 / 151017.8 3.6-0.5
2017-Apr-26 02:00N 50°36' W 096°54'0 0.0 030 / 171017.3 4.1-1.6
2017-Apr-26 01:00N 50°36' W 096°54'0 0.0 010 / 181016.5 4.8-1.9
2017-Apr-26 00:00N 50°36' W 096°54'0 0.0 010 / 181015.9 4.9-1.9
2017-Apr-25 23:00N 50°36' W 096°54'0 0.0 010 / 191015.4 4.7-2.2
2017-Apr-25 22:00N 50°36' W 096°54'0 0.0 010 / 211015.2 4.4-3.3
2017-Apr-25 21:00N 50°36' W 096°54'0 0.0 010 / 211015.4 3.8-3.6
2017-Apr-25 20:00N 50°36' W 096°54'0 0.0 010 / 201016.2 3.0-4.2
2017-Apr-25 19:00N 50°36' W 096°54'0 0.0 010 / 211016.3 2.2-4.3
2017-Apr-25 18:00N 50°36' W 096°54'0 0.0 010 / 211016.0 1.1-4.4
2017-Apr-25 17:00N 50°36' W 096°54'0 0.0 020 / 241015.6 0.4-4.7
2017-Apr-25 16:00N 50°36' W 096°54'0 0.0 020 / 231015.6 -0.5-4.7
2017-Apr-25 15:00N 50°36' W 096°54'0 0.0 010 / 221015.5 -1.1-4.7
2017-Apr-25 14:00N 50°36' W 096°54'0 0.0 020 / 211015.3 -1.2-4.7
2017-Apr-25 13:00N 50°36' W 096°54'0 0.0 040 / 211014.9 -1.2-4.5
2017-Apr-25 12:00N 50°36' W 096°54'0 0.0 030 / 211014.2 -0.7-3.9
2017-Apr-25 11:00N 50°36' W 096°54'0 0.0 050 / 221013.7 -0.5-4.2
2017-Apr-25 10:00N 50°36' W 096°54'0 0.0 040 / 231013.1 -0.3-3.6
2017-Apr-25 09:00N 50°36' W 096°54'0 0.0 030 / 251012.5 -0.3-3.7
2017-Apr-25 06:00N 50°36' W 096°54'0 0.0 040 / 241012.3 0.3-3.0
2017-Apr-25 05:00N 50°36' W 096°54'0 0.0 050 / 241012.2 0.4-2.7
2017-Apr-25 04:00N 50°36' W 096°54'0 0.0 050 / 231012.4 0.3-2.4
2017-Apr-25 03:00N 50°36' W 096°54'0 0.0 050 / 241012.5 0.5-2.1
2017-Apr-25 01:00N 50°36' W 096°54'0 0.0 050 / 221011.8 0.6 0.4
2017-Apr-25 00:00N 50°36' W 096°54'0 0.0 050 / 241011.6 0.5 0.4
2017-Apr-24 23:00N 50°36' W 096°54'0 0.0 050 / 201011.8 0.4 0.3
2017-Apr-24 22:00N 50°36' W 096°54'0 0.0 050 / 191011.7 0.7 0.6
2017-Apr-24 21:00N 50°36' W 096°54'0 0.0 070 / 191011.9 0.9 0.9
2017-Apr-24 20:00N 50°36' W 096°54'0 0.0 070 / 221011.5 3.1-4.4
2017-Apr-24 19:00N 50°36' W 096°54'0 0.0 060 / 121011.4 3.1-4.7
2017-Apr-24 18:00N 50°36' W 096°54'0 0.0 040 / 171011.3 2.8-5.2
2017-Apr-24 17:00N 50°36' W 096°54'0 0.0 050 / 181012.2 2.4-6.1
2017-Apr-24 16:00N 50°36' W 096°54'0 0.0 040 / 181013.0 1.9-6.7
2017-Apr-24 15:00N 50°36' W 096°54'0 0.0 060 / 191014.0 1.5-7.4
2017-Apr-24 14:00N 50°36' W 096°54'0 0.0 060 / 191014.7 1.1-6.9
2017-Apr-24 13:00N 50°36' W 096°54'0 0.0 080 / 181015.5 1.1-7.3
2017-Apr-24 12:00N 50°36' W 096°54'0 0.0 080 / 151015.8 0.9-6.8
2017-Apr-24 11:00N 50°36' W 096°54'0 0.0 090 / 141016.4 0.8-6.6
2017-Apr-24 10:00N 50°36' W 096°54'0 0.0 080 / 141016.8 0.9-6.3
2017-Apr-24 09:00N 50°36' W 096°54'0 0.0 070 / 151017.2 1.1-5.2
2017-Apr-24 08:00N 50°36' W 096°54'0 0.0 060 / 201017.9 1.3-5.2
2017-Apr-24 07:00N 50°36' W 096°54'0 0.0 050 / 201018.4 1.5-4.8
2017-Apr-24 06:00N 50°36' W 096°54'0 0.0 050 / 181019.4 2.0-4.7
2017-Apr-24 05:00N 50°36' W 096°54'0 0.0 040 / 191019.4 2.2-4.3
2017-Apr-24 04:00N 50°36' W 096°54'0 0.0 030 / 171020.0 2.3-4.8
2017-Apr-24 03:00N 50°36' W 096°54'0 0.0 030 / 161020.3 2.3-5.6
2017-Apr-24 02:00N 50°36' W 096°54'0 0.0 030 / 151020.7 2.4-5.6
2017-Apr-24 01:00N 50°36' W 096°54'0 0.0 020 / 131021.0 2.0-6.7
2017-Apr-24 00:00N 50°36' W 096°54'0 0.0 020 / 131021.4 2.3-7.2
2017-Apr-23 23:00N 50°36' W 096°54'0 0.0 050 / 151022.1 2.0-7.0
2017-Apr-23 22:00N 50°36' W 096°54'0 0.0 050 / 141022.7 1.8-8.1
2017-Apr-23 21:00N 50°36' W 096°54'0 0.0 060 / 131023.6 1.5-7.9
2017-Apr-23 20:00N 50°36' W 096°54'0 0.0 080 / 101024.5 1.9-8.4
2017-Apr-23 19:00N 50°36' W 096°54'0 0.0 090 / 71025.3 2.4-8.7
2017-Apr-23 18:00N 50°36' W 096°54'0 0.0 100 / 51026.1 1.9-9.7
2017-Apr-23 17:00N 50°36' W 096°54'0 0.0 120 / 81026.3 0.7-8.7
2017-Apr-23 16:00N 50°36' W 096°54'0 0.0 110 / 71026.6 0.6-8.9
2017-Apr-23 15:00N 50°36' W 096°54'0 0.0 110 / 71026.6 -0.2-7.3
2017-Apr-23 14:00N 50°36' W 096°54'0 0.0 120 / 51027.0 -0.9-8.5
2017-Apr-23 13:00N 50°36' W 096°54'0 0.0 360 / 31027.2 -2.5-5.6
2017-Apr-23 12:00N 50°36' W 096°54'0 0.0 310 / 31027.2 -4.3-8.0
2017-Apr-23 11:00N 50°36' W 096°54'0 0.0 320 / 51027.6 -4.6-9.0
2017-Apr-23 10:00N 50°36' W 096°54'0 0.0 320 / 51027.9 -4.2-9.1
2017-Apr-23 09:00N 50°36' W 096°54'0 0.0 320 / 51027.8 -4.0-9.2
2017-Apr-23 08:00N 50°36' W 096°54'0 0.0 300 / 41028.1 -4.0-9.5
2017-Apr-23 07:00N 50°36' W 096°54'0 0.0 310 / 41028.0 -3.4-9.9
2017-Apr-23 06:00N 50°36' W 096°54'0 0.0 330 / 61027.9 -2.6-9.5
2017-Apr-23 05:00N 50°36' W 096°54'0 0.0 340 / 111027.8 -1.7-9.7
2017-Apr-23 04:00N 50°36' W 096°54'0 0.0 340 / 121027.5 -1.9-10.8
2017-Apr-23 03:00N 50°36' W 096°54'0 0.0 340 / 151027.3 -1.8-10.7
2017-Apr-23 02:00N 50°36' W 096°54'0 0.0 340 / 141027.0 -1.4-10.9
2017-Apr-23 01:00N 50°36' W 096°54'0 0.0 350 / 161026.9 -0.8-10.0
2017-Apr-23 00:00N 50°36' W 096°54'0 0.0 350 / 161026.6 0.1-8.1
2017-Apr-22 23:00N 50°36' W 096°54'0 0.0 360 / 181026.2 0.6-7.1
2017-Apr-22 22:00N 50°36' W 096°54'0 0.0 020 / 181026.0 0.7-5.4
2017-Apr-22 21:00N 50°36' W 096°54'0 0.0 010 / 161026.2 1.2-5.3
2017-Apr-22 20:00N 50°36' W 096°54'0 0.0 360 / 171026.0 1.1-5.8
2017-Apr-22 19:00N 50°36' W 096°54'0 0.0 350 / 181026.2 1.0-6.0
2017-Apr-22 18:00N 50°36' W 096°54'0 0.0 360 / 181026.5 0.5-4.4
2017-Apr-22 17:00N 50°36' W 096°54'0 0.0 340 / 141026.2 -0.9-1.0
2017-Apr-22 16:00N 50°36' W 096°54'0 0.0 330 / 141025.8 -1.5-1.5
2017-Apr-22 15:00N 50°36' W 096°54'0 0.0 340 / 141025.4 -1.3-1.2
2017-Apr-22 14:00N 50°36' W 096°54'0 0.0 340 / 141025.0 -1.2-1.1
2017-Apr-22 13:00N 50°36' W 096°54'0 0.0 330 / 131024.7 -0.3-0.2
2017-Apr-22 12:00N 50°36' W 096°54'0 0.0 340 / 161023.9 0.2 0.3
2017-Apr-22 11:00N 50°36' W 096°54'0 0.0 330 / 111023.5 0.8 1.0
2017-Apr-22 10:00N 50°36' W 096°54'0 0.0 330 / 111022.8 2.6 2.8
2017-Apr-22 09:00N 50°36' W 096°54'0 0.0 330 / 101022.7 3.6 3.8
2017-Apr-22 08:00N 50°36' W 096°54'0 0.0 320 / 121022.4 4.3 4.5
2017-Apr-22 07:00N 50°36' W 096°54'0 0.0 320 / 81022.5 5.4 5.6
2017-Apr-22 06:00N 50°36' W 096°54'0 0.0 350 / 81022.0 5.9 6.1
2017-Apr-22 05:00N 50°36' W 096°54'0 0.0 360 / 101021.6 6.7 6.8
2017-Apr-22 04:00N 50°36' W 096°54'0 0.0 010 / 91021.7 5.9 5.9
2017-Apr-22 03:00N 50°36' W 096°54'0 0.0 360 / 111021.2 7.9 7.7
2017-Apr-22 02:00N 50°36' W 096°54'0 0.0 360 / 91021.4 8.5 5.7
2017-Apr-22 01:00N 50°36' W 096°54'0 0.0 220 / 61020.8 13.7 1.0
2017-Apr-22 00:00N 50°36' W 096°54'0 0.0 160 / 61021.3 8.5 2.2
2017-Apr-21 23:00N 50°36' W 096°54'0 0.0 130 / 91021.5 10.0 3.6
2017-Apr-21 22:00N 50°36' W 096°54'0 0.0 130 / 131021.7 9.1 4.3
2017-Apr-21 21:00N 50°36' W 096°54'0 0.0 120 / 111022.2 6.8 5.6
2017-Apr-21 20:00N 50°36' W 096°54'0 0.0 110 / 81022.9 7.3 5.7
2017-Apr-21 19:00N 50°36' W 096°54'0 0.0 110 / 91023.3 5.6 5.6
2017-Apr-21 18:00N 50°36' W 096°54'0 0.0 110 / 71023.6 4.4 4.5
2017-Apr-21 17:00N 50°36' W 096°54'0 0.0 110 / 91023.8 4.0 4.0
2017-Apr-21 16:00N 50°36' W 096°54'0 0.0 120 / 71024.1 4.5 4.5
2017-Apr-21 15:00N 50°36' W 096°54'0 0.0 210 / 41024.0 6.4 5.8
2017-Apr-21 14:00N 50°36' W 096°54'0 0.0 230 / 31024.6 3.6 3.6
2017-Apr-21 13:00N 50°36' W 096°54'0 0.0 310 / 11024.2 2.6 2.6
2017-Apr-21 12:00N 50°36' W 096°54'0 0.0 260 / 41023.9 1.1 1.3
2017-Apr-21 11:00N 50°36' W 096°54'0 0.0 270 / 51023.7 0.7 0.9
2017-Apr-21 10:00N 50°36' W 096°54'0 0.0 270 / 31023.3 0.8 1.0
2017-Apr-21 09:00N 50°36' W 096°54'0 0.0 290 / 31023.2 1.7 1.8
2017-Apr-21 08:00N 50°36' W 096°54'0 0.0 290 / 31023.1 2.2 2.2
2017-Apr-21 07:00N 50°36' W 096°54'0 0.0 300 / 41022.9 3.3 3.2
2017-Apr-21 06:00N 50°36' W 096°54'0 0.0 310 / 41022.8 3.9 3.8
2017-Apr-21 05:00N 50°36' W 096°54'0 0.0 350 / 41022.4 4.1 4.0
2017-Apr-21 04:00N 50°36' W 096°54'0 0.0 360 / 101021.8 4.9 4.6
2017-Apr-21 03:00N 50°36' W 096°54'0 0.0 360 / 81021.4 5.5 4.8
2017-Apr-21 02:00N 50°36' W 096°54'0 0.0 360 / 81021.0 5.4 4.7
2017-Apr-21 01:00N 50°36' W 096°54'0 0.0 360 / 71020.6 6.8 3.5
2017-Apr-21 00:00N 50°36' W 096°54'0 0.0 040 / 21020.1 5.7 4.3
2017-Apr-20 23:00N 50°36' W 096°54'0 0.0 020 / 31019.8 5.1 5.0
2017-Apr-20 22:00N 50°36' W 096°54'0 0.0 010 / 51019.3 5.0 4.9
2017-Apr-20 20:00N 50°36' W 096°54'0 0.0 020 / 71019.3 4.8 4.6
2017-Apr-20 19:00N 50°36' W 096°54'0 0.0 020 / 51019.2 4.4 4.3
2017-Apr-20 18:00N 50°36' W 096°54'0 0.0 040 / 41019.3 4.0 3.9
2017-Apr-20 17:00N 50°36' W 096°54'0 0.0 060 / 41019.1 5.3 3.7
2017-Apr-20 16:00N 50°36' W 096°54'0 0.0 030 / 31019.0 6.4 3.4
2017-Apr-20 15:00N 50°36' W 096°54'0 0.0 1018.9 5.2 2.0
2017-Apr-20 14:00N 50°36' W 096°54'0 0.0 130 / 21018.7 4.1 3.8
2017-Apr-20 13:00N 50°36' W 096°54'0 0.0 110 / 21018.6 3.9 3.7
2017-Apr-20 12:00N 50°36' W 096°54'0 0.0 1018.2 3.1 3.0
2017-Apr-20 11:00N 50°36' W 096°54'0 0.0 260 / 11018.1 3.2 2.9
2017-Apr-20 10:00N 50°36' W 096°54'0 0.0 1018.0 4.1 1.3
2017-Apr-20 09:00N 50°36' W 096°54'0 0.0 200 / 21018.2 3.4 1.9
2017-Apr-20 07:00N 50°36' W 096°54'0 0.0 140 / 11018.5 4.6 1.0
2017-Apr-20 06:00N 50°36' W 096°54'0 0.0 090 / 41018.6 4.3 1.7
2017-Apr-20 05:00N 50°36' W 096°54'0 0.0 060 / 31019.2 3.3 1.7
2017-Apr-20 04:00N 50°36' W 096°54'0 0.0 050 / 31019.5 3.3 0.3
2017-Apr-20 03:00N 50°36' W 096°54'0 0.0 010 / 21020.0 3.5 0.3
2017-Apr-20 02:00N 50°36' W 096°54'0 0.0 010 / 31019.9 4.9 0.1
2017-Apr-20 01:00N 50°36' W 096°54'0 0.0 010 / 51020.0 4.3 0.8
2017-Apr-20 00:00N 50°36' W 096°54'0 0.0 010 / 41020.1 3.7 2.4
2017-Apr-19 23:00N 50°36' W 096°54'0 0.0 030 / 31020.6 3.8 2.5
2017-Apr-19 22:00N 50°36' W 096°54'0 0.0 040 / 51020.8 4.8 0.7
2017-Apr-19 21:00N 50°36' W 096°54'0 0.0 040 / 61021.2 3.9 2.6
2017-Apr-19 20:00N 50°36' W 096°54'0 0.0 060 / 41021.4 3.5 3.4
2017-Apr-19 19:00N 50°36' W 096°54'0 0.0 050 / 41021.5 3.1 3.0
2017-Apr-19 18:00N 50°36' W 096°54'0 0.0 040 / 41022.1 3.1 2.9
2017-Apr-19 17:00N 50°36' W 096°54'0 0.0 090 / 41023.3 4.8 0.9
2017-Apr-19 16:00N 50°36' W 096°54'0 0.0 080 / 11022.3 4.3 0.2
2017-Apr-19 15:00N 50°36' W 096°54'0 0.0 050 / 41022.0 1.3 1.1
2017-Apr-19 14:00N 50°36' W 096°54'0 0.0 040 / 41022.2 0.7 0.6
2017-Apr-19 13:00N 50°36' W 096°54'0 0.0 140 / 11022.7 0.9 0.8
2017-Apr-19 12:00N 50°36' W 096°54'0 0.0 150 / 21022.8 0.5 0.4
2017-Apr-19 11:00N 50°36' W 096°54'0 0.0 060 / 31021.7 0.4 0.4
2017-Apr-19 10:00N 50°36' W 096°54'0 0.0 050 / 51021.2 0.6 0.6
2017-Apr-19 09:00N 50°36' W 096°54'0 0.0 030 / 51021.3 1.1 1.0
2017-Apr-19 08:00N 50°36' W 096°54'0 0.0 020 / 71020.9 1.4 1.4
2017-Apr-19 07:00N 50°36' W 096°54'0 0.0 010 / 91020.8 1.3 1.2
2017-Apr-19 06:00N 50°36' W 096°54'0 0.0 360 / 111020.2 1.5 0.4
2017-Apr-19 05:00N 50°36' W 096°54'   350 / 91019.7 1.8-1.0

Dump ship's entire track history